sensor_id;sensor_type;location;lat;lon;timestamp;pressure;altitude;pressure_sealevel;temperature;humidity
9523;BME280;63165;43.016;25.784;2023-07-24T00:00:56;100143.13;;;22.41;100.00
9523;BME280;63165;43.016;25.784;2023-07-24T00:03:23;100139.81;;;22.38;100.00
9523;BME280;63165;43.016;25.784;2023-07-24T00:05:50;100137.31;;;22.35;100.00
9523;BME280;63165;43.016;25.784;2023-07-24T00:08:19;100138.56;;;22.29;100.00
9523;BME280;63165;43.016;25.784;2023-07-24T00:10:46;100138.56;;;22.29;100.00
9523;BME280;63165;43.016;25.784;2023-07-24T00:13:13;100137.03;;;22.25;100.00
9523;BME280;63165;43.016;25.784;2023-07-24T00:15:41;100143.72;;;22.18;100.00
9523;BME280;63165;43.016;25.784;2023-07-24T00:18:08;100153.69;;;22.14;100.00
9523;BME280;63165;43.016;25.784;2023-07-24T00:20:35;100138.09;;;22.08;100.00
9523;BME280;63165;43.016;25.784;2023-07-24T00:23:02;100145.34;;;22.06;100.00
9523;BME280;63165;43.016;25.784;2023-07-24T00:25:31;100148.19;;;22.03;100.00
9523;BME280;63165;43.016;25.784;2023-07-24T00:27:58;100145.63;;;22.01;100.00
9523;BME280;63165;43.016;25.784;2023-07-24T00:30:25;100141.25;;;22.00;100.00
9523;BME280;63165;43.016;25.784;2023-07-24T00:32:52;100140.41;;;22.00;100.00
9523;BME280;63165;43.016;25.784;2023-07-24T00:35:19;100143.84;;;22.02;100.00
9523;BME280;63165;43.016;25.784;2023-07-24T00:37:47;100139.25;;;22.04;100.00
9523;BME280;63165;43.016;25.784;2023-07-24T00:40:14;100142.88;;;22.03;100.00
9523;BME280;63165;43.016;25.784;2023-07-24T00:42:46;100144.69;;;22.02;100.00
9523;BME280;63165;43.016;25.784;2023-07-24T00:45:13;100148.28;;;22.01;100.00
9523;BME280;63165;43.016;25.784;2023-07-24T00:47:41;100139.75;;;21.96;100.00
9523;BME280;63165;43.016;25.784;2023-07-24T00:50:09;100133.66;;;21.94;100.00
9523;BME280;63165;43.016;25.784;2023-07-24T00:52:38;100133.66;;;21.94;100.00
9523;BME280;63165;43.016;25.784;2023-07-24T00:55:06;100136.41;;;21.93;100.00
9523;BME280;63165;43.016;25.784;2023-07-24T00:57:34;100138.31;;;21.90;100.00
9523;BME280;63165;43.016;25.784;2023-07-24T01:00:03;100134.16;;;21.86;100.00
9523;BME280;63165;43.016;25.784;2023-07-24T01:02:31;100138.81;;;21.83;100.00
9523;BME280;63165;43.016;25.784;2023-07-24T01:04:58;100141.75;;;21.78;100.00
9523;BME280;63165;43.016;25.784;2023-07-24T01:07:26;100140.13;;;21.76;100.00
9523;BME280;63165;43.016;25.784;2023-07-24T01:09:53;100140.22;;;21.74;100.00
9523;BME280;63165;43.016;25.784;2023-07-24T01:12:24;100130.63;;;21.71;100.00
9523;BME280;63165;43.016;25.784;2023-07-24T01:15:06;100138.50;;;21.73;100.00
9523;BME280;63165;43.016;25.784;2023-07-24T01:17:41;100132.31;;;21.73;100.00
9523;BME280;63165;43.016;25.784;2023-07-24T01:20:11;100135.06;;;21.71;100.00
9523;BME280;63165;43.016;25.784;2023-07-24T01:22:48;100125.31;;;21.71;100.00
9523;BME280;63165;43.016;25.784;2023-07-24T01:25:27;100131.66;;;21.69;100.00
9523;BME280;63165;43.016;25.784;2023-07-24T01:27:58;100126.31;;;21.69;100.00
9523;BME280;63165;43.016;25.784;2023-07-24T01:30:25;100128.22;;;21.67;100.00
9523;BME280;63165;43.016;25.784;2023-07-24T01:32:52;100128.41;;;21.64;100.00
9523;BME280;63165;43.016;25.784;2023-07-24T01:35:19;100140.97;;;21.62;100.00
9523;BME280;63165;43.016;25.784;2023-07-24T01:37:48;100134.63;;;21.64;100.00
9523;BME280;63165;43.016;25.784;2023-07-24T01:40:15;100132.59;;;21.54;100.00
9523;BME280;63165;43.016;25.784;2023-07-24T01:42:43;100132.88;;;21.49;100.00
9523;BME280;63165;43.016;25.784;2023-07-24T01:45:12;100132.22;;;21.45;100.00
9523;BME280;63165;43.016;25.784;2023-07-24T01:47:39;100137.69;;;21.42;100.00
9523;BME280;63165;43.016;25.784;2023-07-24T01:50:07;100134.34;;;21.39;100.00
9523;BME280;63165;43.016;25.784;2023-07-24T01:52:34;100136.09;;;21.40;100.00
9523;BME280;63165;43.016;25.784;2023-07-24T01:55:02;100132.75;;;21.36;100.00
9523;BME280;63165;43.016;25.784;2023-07-24T01:57:29;100135.66;;;21.31;100.00
9523;BME280;63165;43.016;25.784;2023-07-24T01:59:56;100133.09;;;21.30;100.00
9523;BME280;63165;43.016;25.784;2023-07-24T02:02:25;100135.75;;;21.30;100.00
9523;BME280;63165;43.016;25.784;2023-07-24T02:04:52;100138.63;;;21.27;100.00
9523;BME280;63165;43.016;25.784;2023-07-24T02:07:19;100132.53;;;21.25;100.00
9523;BME280;63165;43.016;25.784;2023-07-24T02:09:46;100142.22;;;21.26;100.00
9523;BME280;63165;43.016;25.784;2023-07-24T02:12:13;100137.94;;;21.23;100.00
9523;BME280;63165;43.016;25.784;2023-07-24T02:14:40;100134.53;;;21.21;100.00
9523;BME280;63165;43.016;25.784;2023-07-24T02:17:07;100141.75;;;21.19;100.00
9523;BME280;63165;43.016;25.784;2023-07-24T02:19:36;100145.41;;;21.17;100.00
9523;BME280;63165;43.016;25.784;2023-07-24T02:22:03;100136.84;;;21.11;100.00
9523;BME280;63165;43.016;25.784;2023-07-24T02:24:30;100140.09;;;21.17;100.00
9523;BME280;63165;43.016;25.784;2023-07-24T02:26:57;100147.59;;;21.10;100.00
9523;BME280;63165;43.016;25.784;2023-07-24T02:29:24;100144.34;;;21.05;100.00
9523;BME280;63165;43.016;25.784;2023-07-24T02:31:53;100152.34;;;21.05;100.00
9523;BME280;63165;43.016;25.784;2023-07-24T02:34:20;100146.34;;;21.01;100.00
9523;BME280;63165;43.016;25.784;2023-07-24T02:39:18;100152.09;;;20.93;100.00
9523;BME280;63165;43.016;25.784;2023-07-24T02:41:45;100157.50;;;20.92;100.00
9523;BME280;63165;43.016;25.784;2023-07-24T02:44:14;100147.78;;;20.91;100.00
9523;BME280;63165;43.016;25.784;2023-07-24T02:46:41;100156.81;;;20.88;100.00
9523;BME280;63165;43.016;25.784;2023-07-24T02:49:08;100153.47;;;20.85;100.00
9523;BME280;63165;43.016;25.784;2023-07-24T02:51:35;100153.56;;;20.83;100.00
9523;BME280;63165;43.016;25.784;2023-07-24T02:54:04;100159.94;;;20.81;100.00
9523;BME280;63165;43.016;25.784;2023-07-24T02:56:31;100151.94;;;20.81;100.00
9523;BME280;63165;43.016;25.784;2023-07-24T02:58:58;100145.03;;;20.78;100.00
9523;BME280;63165;43.016;25.784;2023-07-24T03:01:26;100137.97;;;20.77;100.00
9523;BME280;63165;43.016;25.784;2023-07-24T03:03:53;100149.66;;;20.74;100.00
9523;BME280;63165;43.016;25.784;2023-07-24T03:06:20;100145.53;;;20.69;100.00
9523;BME280;63165;43.016;25.784;2023-07-24T03:08:47;100148.38;;;20.66;100.00
9523;BME280;63165;43.016;25.784;2023-07-24T03:11:15;100151.97;;;20.65;100.00
9523;BME280;63165;43.016;25.784;2023-07-24T03:13:43;100154.53;;;20.66;100.00
9523;BME280;63165;43.016;25.784;2023-07-24T03:16:10;100156.06;;;20.70;100.00
9523;BME280;63165;43.016;25.784;2023-07-24T03:18:37;100156.34;;;20.66;100.00
9523;BME280;63165;43.016;25.784;2023-07-24T03:21:04;100161.75;;;20.64;100.00
9523;BME280;63165;43.016;25.784;2023-07-24T03:23:32;100161.94;;;20.61;100.00
9523;BME280;63165;43.016;25.784;2023-07-24T03:25:59;100157.56;;;20.60;100.00
9523;BME280;63165;43.016;25.784;2023-07-24T03:28:27;100159.28;;;20.61;100.00
9523;BME280;63165;43.016;25.784;2023-07-24T03:30:55;100153.13;;;20.59;100.00
9523;BME280;63165;43.016;25.784;2023-07-24T03:33:22;100163.00;;;20.57;100.00
9523;BME280;63165;43.016;25.784;2023-07-24T03:35:49;100156.63;;;20.61;100.00
9523;BME280;63165;43.016;25.784;2023-07-24T03:38:16;100152.28;;;20.59;100.00
9523;BME280;63165;43.016;25.784;2023-07-24T03:40:43;100141.31;;;20.65;100.00
9523;BME280;63165;43.016;25.784;2023-07-24T03:43:10;100149.22;;;20.66;100.00
9523;BME280;63165;43.016;25.784;2023-07-24T03:45:39;100141.06;;;20.69;100.00
9523;BME280;63165;43.016;25.784;2023-07-24T03:48:06;100139.34;;;20.68;100.00
9523;BME280;63165;43.016;25.784;2023-07-24T03:50:33;100126.75;;;20.72;100.00
9523;BME280;63165;43.016;25.784;2023-07-24T03:53:00;100136.44;;;20.73;100.00
9523;BME280;63165;43.016;25.784;2023-07-24T03:55:27;100141.75;;;20.73;100.00
9523;BME280;63165;43.016;25.784;2023-07-24T03:57:54;100141.06;;;20.69;100.00
9523;BME280;63165;43.016;25.784;2023-07-24T04:00:21;100139.94;;;20.73;100.00
9523;BME280;63165;43.016;25.784;2023-07-24T04:02:50;100138.13;;;20.74;100.00
9523;BME280;63165;43.016;25.784;2023-07-24T04:05:17;100134.56;;;20.75;100.00
9523;BME280;63165;43.016;25.784;2023-07-24T04:07:44;100140.38;;;20.82;100.00
9523;BME280;63165;43.016;25.784;2023-07-24T04:10:11;100141.84;;;20.87;100.00
9523;BME280;63165;43.016;25.784;2023-07-24T04:12:38;100136.06;;;20.95;100.00
9523;BME280;63165;43.016;25.784;2023-07-24T04:15:07;100130.28;;;21.03;100.00
9523;BME280;63165;43.016;25.784;2023-07-24T04:17:34;100133.63;;;21.06;100.00
9523;BME280;63165;43.016;25.784;2023-07-24T04:20:03;100141.91;;;21.16;100.00
9523;BME280;63165;43.016;25.784;2023-07-24T04:22:30;100136.91;;;21.26;100.00
9523;BME280;63165;43.016;25.784;2023-07-24T04:24:58;100140.91;;;21.33;100.00
9523;BME280;63165;43.016;25.784;2023-07-24T04:27:25;100145.84;;;21.39;100.00
9523;BME280;63165;43.016;25.784;2023-07-24T04:29:52;100134.69;;;21.48;100.00
9523;BME280;63165;43.016;25.784;2023-07-24T04:32:19;100134.22;;;21.56;100.00
9523;BME280;63165;43.016;25.784;2023-07-24T04:34:46;100133.66;;;21.65;100.00
9523;BME280;63165;43.016;25.784;2023-07-24T04:37:15;100133.94;;;21.75;100.00
9523;BME280;63165;43.016;25.784;2023-07-24T04:39:42;100146.97;;;21.80;100.00
9523;BME280;63165;43.016;25.784;2023-07-24T04:42:09;100144.41;;;21.93;100.00
9523;BME280;63165;43.016;25.784;2023-07-24T04:44:36;100146.69;;;21.99;100.00
9523;BME280;63165;43.016;25.784;2023-07-24T04:47:04;100145.53;;;22.03;100.00
9523;BME280;63165;43.016;25.784;2023-07-24T04:49:31;100142.78;;;22.04;100.00
9523;BME280;63165;43.016;25.784;2023-07-24T04:51:58;100146.69;;;22.13;100.00
9523;BME280;63165;43.016;25.784;2023-07-24T04:54:28;100149.91;;;22.18;100.00
9523;BME280;63165;43.016;25.784;2023-07-24T04:56:55;100138.66;;;22.27;100.00
9523;BME280;63165;43.016;25.784;2023-07-24T04:59:22;100137.31;;;22.35;100.00
9523;BME280;63165;43.016;25.784;2023-07-24T05:01:49;100151.13;;;22.41;100.00
9523;BME280;63165;43.016;25.784;2023-07-24T05:04:17;100136.88;;;22.55;100.00
9523;BME280;63165;43.016;25.784;2023-07-24T05:06:44;100134.88;;;22.59;100.00
9523;BME280;63165;43.016;25.784;2023-07-24T05:09:11;100134.19;;;22.70;100.00
9523;BME280;63165;43.016;25.784;2023-07-24T05:11:39;100140.50;;;22.81;100.00
9523;BME280;63165;43.016;25.784;2023-07-24T05:14:07;100141.06;;;22.86;100.00
9523;BME280;63165;43.016;25.784;2023-07-24T05:16:34;100136.84;;;22.97;100.00
9523;BME280;63165;43.016;25.784;2023-07-24T05:19:02;100143.69;;;23.01;100.00
9523;BME280;63165;43.016;25.784;2023-07-24T05:21:29;100134.22;;;23.10;100.00
9523;BME280;63165;43.016;25.784;2023-07-24T05:23:56;100141.59;;;23.19;100.00
9523;BME280;63165;43.016;25.784;2023-07-24T05:26:23;100139.03;;;23.30;100.00
9523;BME280;63165;43.016;25.784;2023-07-24T05:28:52;100138.31;;;23.41;100.00
9523;BME280;63165;43.016;25.784;2023-07-24T05:31:19;100145.38;;;23.55;100.00
9523;BME280;63165;43.016;25.784;2023-07-24T05:33:46;100146.25;;;23.68;100.00
9523;BME280;63165;43.016;25.784;2023-07-24T05:36:14;100131.84;;;23.83;100.00
9523;BME280;63165;43.016;25.784;2023-07-24T05:38:41;100131.19;;;23.93;100.00
9523;BME280;63165;43.016;25.784;2023-07-24T05:41:08;100133.72;;;24.07;100.00
9523;BME280;63165;43.016;25.784;2023-07-24T05:43:35;100132.81;;;24.19;100.00
9523;BME280;63165;43.016;25.784;2023-07-24T05:46:04;100130.56;;;24.26;98.52
9523;BME280;63165;43.016;25.784;2023-07-24T05:48:31;100122.72;;;24.36;98.18
9523;BME280;63165;43.016;25.784;2023-07-24T05:51:01;100118.00;;;24.52;98.04
9523;BME280;63165;43.016;25.784;2023-07-24T05:53:28;100118.69;;;24.67;95.71
9523;BME280;63165;43.016;25.784;2023-07-24T05:55:59;100115.06;;;24.79;94.01
9523;BME280;63165;43.016;25.784;2023-07-24T05:58:26;100113.31;;;24.91;92.64
9523;BME280;63165;43.016;25.784;2023-07-24T06:00:54;100114.09;;;25.05;91.39
9523;BME280;63165;43.016;25.784;2023-07-24T06:03:24;100102.31;;;25.18;91.51
9523;BME280;63165;43.016;25.784;2023-07-24T06:05:51;100110.16;;;25.33;89.96
9523;BME280;63165;43.016;25.784;2023-07-24T06:08:19;100111.97;;;25.44;90.50
9523;BME280;63165;43.016;25.784;2023-07-24T06:10:47;100097.41;;;25.59;87.61
9523;BME280;63165;43.016;25.784;2023-07-24T06:13:15;100113.72;;;25.67;86.44
9523;BME280;63165;43.016;25.784;2023-07-24T06:15:42;100106.78;;;25.76;86.13
9523;BME280;63165;43.016;25.784;2023-07-24T06:18:10;100109.13;;;25.92;85.76
9523;BME280;63165;43.016;25.784;2023-07-24T06:20:39;100111.66;;;26.05;83.25
9523;BME280;63165;43.016;25.784;2023-07-24T06:23:06;100121.41;;;26.17;82.33
9523;BME280;63165;43.016;25.784;2023-07-24T06:25:33;100108.59;;;26.32;82.03
9523;BME280;63165;43.016;25.784;2023-07-24T06:28:00;100108.69;;;26.42;80.47
9523;BME280;63165;43.016;25.784;2023-07-24T06:30:28;100095.94;;;26.55;81.06
9523;BME280;63165;43.016;25.784;2023-07-24T06:32:55;100107.16;;;26.71;80.87
9523;BME280;63165;43.016;25.784;2023-07-24T06:35:22;100098.44;;;26.79;79.45
9523;BME280;63165;43.016;25.784;2023-07-24T06:37:50;100100.56;;;26.97;78.67
9523;BME280;63165;43.016;25.784;2023-07-24T06:40:18;100098.09;;;27.05;77.46
9523;BME280;63165;43.016;25.784;2023-07-24T06:42:45;100103.19;;;27.08;77.85
9523;BME280;63165;43.016;25.784;2023-07-24T06:45:13;100090.28;;;27.23;77.38
9523;BME280;63165;43.016;25.784;2023-07-24T06:47:40;100093.50;;;27.38;76.85
9523;BME280;63165;43.016;25.784;2023-07-24T06:50:08;100099.38;;;27.53;74.54
9523;BME280;63165;43.016;25.784;2023-07-24T06:52:35;100091.66;;;27.59;73.32
9523;BME280;63165;43.016;25.784;2023-07-24T06:55:04;100088.41;;;27.65;73.88
9523;BME280;63165;43.016;25.784;2023-07-24T06:57:32;100090.16;;;27.76;74.11
9523;BME280;63165;43.016;25.784;2023-07-24T06:59:59;100088.81;;;27.92;73.87
9523;BME280;63165;43.016;25.784;2023-07-24T07:02:26;100081.06;;;27.98;73.39
9523;BME280;63165;43.016;25.784;2023-07-24T07:04:54;100089.75;;;28.12;74.73
9523;BME280;63165;43.016;25.784;2023-07-24T07:07:21;100088.78;;;28.32;73.66
9523;BME280;63165;43.016;25.784;2023-07-24T07:09:49;100088.09;;;28.50;72.19
9523;BME280;63165;43.016;25.784;2023-07-24T07:12:18;100075.81;;;28.67;71.83
9523;BME280;63165;43.016;25.784;2023-07-24T07:14:45;100075.81;;;28.86;70.43
9523;BME280;63165;43.016;25.784;2023-07-24T07:17:12;100075.22;;;29.02;69.41
9523;BME280;63165;43.016;25.784;2023-07-24T07:19:40;100079.31;;;29.26;67.81
9523;BME280;63165;43.016;25.784;2023-07-24T07:22:07;100075.44;;;29.38;66.55
9523;BME280;63165;43.016;25.784;2023-07-24T07:24:34;100070.56;;;29.51;65.55
9523;BME280;63165;43.016;25.784;2023-07-24T07:27:01;100068.78;;;29.70;65.10
9523;BME280;63165;43.016;25.784;2023-07-24T07:29:30;100061.56;;;29.80;65.66
9523;BME280;63165;43.016;25.784;2023-07-24T07:31:57;100060.59;;;29.99;66.23
9523;BME280;63165;43.016;25.784;2023-07-24T07:34:24;100054.69;;;30.13;65.82
9523;BME280;63165;43.016;25.784;2023-07-24T07:36:52;100060.94;;;30.32;63.67
9523;BME280;63165;43.016;25.784;2023-07-24T07:39:19;100053.56;;;30.52;62.18
9523;BME280;63165;43.016;25.784;2023-07-24T07:41:46;100047.53;;;30.58;60.82
9523;BME280;63165;43.016;25.784;2023-07-24T07:44:13;100044.44;;;30.71;60.17
9523;BME280;63165;43.016;25.784;2023-07-24T07:46:42;100040.19;;;30.86;56.71
9523;BME280;63165;43.016;25.784;2023-07-24T07:49:09;100044.19;;;31.00;56.00
9523;BME280;63165;43.016;25.784;2023-07-24T07:51:36;100051.06;;;31.12;52.82
9523;BME280;63165;43.016;25.784;2023-07-24T07:54:03;100053.66;;;31.22;52.87
9523;BME280;63165;43.016;25.784;2023-07-24T07:56:31;100057.94;;;31.33;52.46
9523;BME280;63165;43.016;25.784;2023-07-24T07:58:58;100054.66;;;31.47;53.50
9523;BME280;63165;43.016;25.784;2023-07-24T08:01:25;100046.78;;;31.62;53.73
9523;BME280;63165;43.016;25.784;2023-07-24T08:03:54;100046.16;;;31.77;51.50
9523;BME280;63165;43.016;25.784;2023-07-24T08:06:21;100044.50;;;31.84;50.62
9523;BME280;63165;43.016;25.784;2023-07-24T08:08:48;100058.72;;;31.94;50.96
9523;BME280;63165;43.016;25.784;2023-07-24T08:11:15;100053.72;;;32.07;51.48
9523;BME280;63165;43.016;25.784;2023-07-24T08:13:43;100052.56;;;32.18;49.71
9523;BME280;63165;43.016;25.784;2023-07-24T08:16:13;100051.59;;;32.27;49.37
9523;BME280;63165;43.016;25.784;2023-07-24T08:18:44;100052.97;;;32.40;49.88
9523;BME280;63165;43.016;25.784;2023-07-24T08:21:14;100036.88;;;32.46;49.08
9523;BME280;63165;43.016;25.784;2023-07-24T08:23:41;100040.59;;;32.54;49.52
9523;BME280;63165;43.016;25.784;2023-07-24T08:26:08;100040.47;;;32.63;50.86
9523;BME280;63165;43.016;25.784;2023-07-24T08:28:35;100041.31;;;32.72;49.61
9523;BME280;63165;43.016;25.784;2023-07-24T08:31:03;100040.47;;;32.80;50.98
9523;BME280;63165;43.016;25.784;2023-07-24T08:33:30;100031.66;;;32.86;50.90
9523;BME280;63165;43.016;25.784;2023-07-24T08:35:59;100021.81;;;32.93;50.56
9523;BME280;63165;43.016;25.784;2023-07-24T08:38:28;100023.50;;;33.02;49.89
9523;BME280;63165;43.016;25.784;2023-07-24T08:41:05;100016.91;;;33.13;50.12
9523;BME280;63165;43.016;25.784;2023-07-24T08:43:33;100013.84;;;33.16;49.03
9523;BME280;63165;43.016;25.784;2023-07-24T08:46:02;100014.50;;;33.26;47.41
9523;BME280;63165;43.016;25.784;2023-07-24T08:48:31;100007.06;;;33.20;47.27
9523;BME280;63165;43.016;25.784;2023-07-24T08:51:01;100010.28;;;33.24;47.95
9523;BME280;63165;43.016;25.784;2023-07-24T08:53:30;100009.41;;;33.32;48.02
9523;BME280;63165;43.016;25.784;2023-07-24T08:56:00;100005.66;;;33.41;48.38
9523;BME280;63165;43.016;25.784;2023-07-24T08:58:27;100011.19;;;33.47;47.44
9523;BME280;63165;43.016;25.784;2023-07-24T09:00:56;100010.03;;;33.50;45.46
9523;BME280;63165;43.016;25.784;2023-07-24T09:03:23;100012.19;;;33.55;46.42
9523;BME280;63165;43.016;25.784;2023-07-24T09:05:51;100005.56;;;33.57;45.83
9523;BME280;63165;43.016;25.784;2023-07-24T09:08:30;100008.97;;;33.59;45.30
9523;BME280;63165;43.016;25.784;2023-07-24T09:10:58;100002.47;;;33.69;44.36
9523;BME280;63165;43.016;25.784;2023-07-24T09:13:25;100006.91;;;33.70;43.47
9523;BME280;63165;43.016;25.784;2023-07-24T09:15:52;100005.34;;;33.75;45.07
9523;BME280;63165;43.016;25.784;2023-07-24T09:18:21;99998.50;;;33.88;44.23
9523;BME280;63165;43.016;25.784;2023-07-24T09:20:49;100004.03;;;33.94;44.84
9523;BME280;63165;43.016;25.784;2023-07-24T09:23:25;100004.50;;;34.06;45.45
9523;BME280;63165;43.016;25.784;2023-07-24T09:25:55;99995.97;;;34.17;46.27
9523;BME280;63165;43.016;25.784;2023-07-24T09:28:22;99994.84;;;34.27;45.32
9523;BME280;63165;43.016;25.784;2023-07-24T09:30:53;99988.59;;;34.26;44.77
9523;BME280;63165;43.016;25.784;2023-07-24T09:33:21;99993.84;;;34.28;44.02
9523;BME280;63165;43.016;25.784;2023-07-24T09:35:57;99984.56;;;34.22;43.25
9523;BME280;63165;43.016;25.784;2023-07-24T09:38:25;99983.34;;;34.25;43.70
9523;BME280;63165;43.016;25.784;2023-07-24T09:40:53;99979.78;;;34.24;44.06
9523;BME280;63165;43.016;25.784;2023-07-24T09:43:24;99980.28;;;34.28;43.99
9523;BME280;63165;43.016;25.784;2023-07-24T09:45:52;99979.66;;;34.40;43.92
9523;BME280;63165;43.016;25.784;2023-07-24T09:48:22;99971.59;;;34.47;43.53
9523;BME280;63165;43.016;25.784;2023-07-24T09:50:52;99965.19;;;34.63;44.09
9523;BME280;63165;43.016;25.784;2023-07-24T09:53:21;99970.69;;;34.78;42.79
9523;BME280;63165;43.016;25.784;2023-07-24T09:55:52;99963.66;;;34.84;42.33
9523;BME280;63165;43.016;25.784;2023-07-24T09:58:23;99967.63;;;34.96;42.67
9523;BME280;63165;43.016;25.784;2023-07-24T10:00:51;99966.22;;;35.00;42.55
9523;BME280;63165;43.016;25.784;2023-07-24T10:03:18;99965.63;;;35.05;42.41
9523;BME280;63165;43.016;25.784;2023-07-24T10:05:47;99958.59;;;35.10;42.45
9523;BME280;63165;43.016;25.784;2023-07-24T10:08:17;99956.09;;;35.24;41.58
9523;BME280;63165;43.016;25.784;2023-07-24T10:10:44;99946.25;;;35.37;41.93
9523;BME280;63165;43.016;25.784;2023-07-24T10:13:14;99943.59;;;35.44;41.12
9523;BME280;63165;43.016;25.784;2023-07-24T10:15:43;99936.84;;;35.40;40.44
9523;BME280;63165;43.016;25.784;2023-07-24T10:18:11;99942.75;;;35.44;40.50
9523;BME280;63165;43.016;25.784;2023-07-24T10:20:39;99934.69;;;35.50;39.77
9523;BME280;63165;43.016;25.784;2023-07-24T10:23:08;99932.50;;;35.61;38.74
9523;BME280;63165;43.016;25.784;2023-07-24T10:25:37;99930.03;;;35.66;40.81
9523;BME280;63165;43.016;25.784;2023-07-24T10:28:08;99923.75;;;35.80;40.27
9523;BME280;63165;43.016;25.784;2023-07-24T10:30:36;99935.47;;;35.81;39.78
9523;BME280;63165;43.016;25.784;2023-07-24T10:33:10;99924.97;;;35.78;39.08
9523;BME280;63165;43.016;25.784;2023-07-24T10:35:39;99922.25;;;35.63;39.75
9523;BME280;63165;43.016;25.784;2023-07-24T10:38:06;99913.44;;;35.61;39.93
9523;BME280;63165;43.016;25.784;2023-07-24T10:40:33;99917.31;;;35.51;39.72
9523;BME280;63165;43.016;25.784;2023-07-24T10:43:04;99916.09;;;35.54;40.17
9523;BME280;63165;43.016;25.784;2023-07-24T10:45:47;99916.34;;;35.59;40.98
9523;BME280;63165;43.016;25.784;2023-07-24T10:48:17;99918.88;;;35.61;40.10
9523;BME280;63165;43.016;25.784;2023-07-24T10:50:45;99921.13;;;35.57;40.13
9523;BME280;63165;43.016;25.784;2023-07-24T10:53:15;99922.38;;;35.54;40.21
9523;BME280;63165;43.016;25.784;2023-07-24T10:55:43;99909.22;;;35.58;39.32
9523;BME280;63165;43.016;25.784;2023-07-24T10:58:11;99919.94;;;35.60;38.92
9523;BME280;63165;43.016;25.784;2023-07-24T11:00:39;99900.66;;;35.61;39.80
9523;BME280;63165;43.016;25.784;2023-07-24T11:03:08;99898.16;;;35.60;39.05
9523;BME280;63165;43.016;25.784;2023-07-24T11:05:40;99884.41;;;35.68;39.53
9523;BME280;63165;43.016;25.784;2023-07-24T11:08:10;99895.84;;;35.78;39.51
9523;BME280;63165;43.016;25.784;2023-07-24T11:10:44;99889.66;;;35.84;38.32
9523;BME280;63165;43.016;25.784;2023-07-24T11:13:13;99891.41;;;35.92;37.76
9523;BME280;63165;43.016;25.784;2023-07-24T11:15:40;99873.44;;;35.98;38.51
9523;BME280;63165;43.016;25.784;2023-07-24T11:18:07;99869.72;;;36.05;38.38
9523;BME280;63165;43.016;25.784;2023-07-24T11:20:38;99875.25;;;36.12;37.12
9523;BME280;63165;43.016;25.784;2023-07-24T11:23:07;99879.50;;;36.21;36.37
9523;BME280;63165;43.016;25.784;2023-07-24T11:25:34;99873.56;;;36.39;37.09
9523;BME280;63165;43.016;25.784;2023-07-24T11:28:01;99875.31;;;36.47;36.83
9523;BME280;63165;43.016;25.784;2023-07-24T11:30:30;99874.91;;;36.50;34.87
9523;BME280;63165;43.016;25.784;2023-07-24T11:32:59;99882.94;;;36.58;34.60
9523;BME280;63165;43.016;25.784;2023-07-24T11:35:27;99864.91;;;36.57;31.74
9523;BME280;63165;43.016;25.784;2023-07-24T11:37:54;99869.53;;;36.63;33.12
9523;BME280;63165;43.016;25.784;2023-07-24T11:40:31;99862.13;;;36.79;33.07
9523;BME280;63165;43.016;25.784;2023-07-24T11:42:58;99857.34;;;36.87;34.54
9523;BME280;63165;43.016;25.784;2023-07-24T11:45:25;99855.69;;;36.93;34.23
9523;BME280;63165;43.016;25.784;2023-07-24T11:47:52;99854.28;;;37.04;32.95
9523;BME280;63165;43.016;25.784;2023-07-24T11:50:22;99852.81;;;37.08;33.28
9523;BME280;63165;43.016;25.784;2023-07-24T11:52:51;99847.38;;;37.08;31.70
9523;BME280;63165;43.016;25.784;2023-07-24T11:55:20;99849.94;;;37.16;31.23
9523;BME280;63165;43.016;25.784;2023-07-24T11:57:59;99839.50;;;37.26;31.76
9523;BME280;63165;43.016;25.784;2023-07-24T12:00:27;99839.28;;;37.28;31.47
9523;BME280;63165;43.016;25.784;2023-07-24T12:02:58;99833.59;;;37.29;30.76
9523;BME280;63165;43.016;25.784;2023-07-24T12:05:26;99835.50;;;37.29;29.71
9523;BME280;63165;43.016;25.784;2023-07-24T12:07:54;99838.00;;;37.17;29.86
9523;BME280;63165;43.016;25.784;2023-07-24T12:10:26;99834.63;;;37.22;30.61
9523;BME280;63165;43.016;25.784;2023-07-24T12:12:57;99829.41;;;37.27;30.54
9523;BME280;63165;43.016;25.784;2023-07-24T12:15:26;99829.59;;;37.25;30.85
9523;BME280;63165;43.016;25.784;2023-07-24T12:17:53;99828.56;;;37.26;31.00
9523;BME280;63165;43.016;25.784;2023-07-24T12:20:22;99827.75;;;37.33;30.61
9523;BME280;63165;43.016;25.784;2023-07-24T12:22:50;99829.03;;;37.43;30.33
9523;BME280;63165;43.016;25.784;2023-07-24T12:25:17;99825.25;;;37.51;30.29
9523;BME280;63165;43.016;25.784;2023-07-24T12:27:45;99823.00;;;37.61;29.00
9523;BME280;63165;43.016;25.784;2023-07-24T12:30:13;99814.41;;;37.64;29.05
9523;BME280;63165;43.016;25.784;2023-07-24T12:32:41;99815.47;;;37.77;28.96
9523;BME280;63165;43.016;25.784;2023-07-24T12:35:09;99816.28;;;37.91;27.91
9523;BME280;63165;43.016;25.784;2023-07-24T12:37:37;99808.94;;;37.98;27.82
9523;BME280;63165;43.016;25.784;2023-07-24T12:40:06;99810.81;;;38.04;27.26
9523;BME280;63165;43.016;25.784;2023-07-24T12:42:34;99799.72;;;38.12;27.75
9523;BME280;63165;43.016;25.784;2023-07-24T12:45:01;99807.88;;;38.32;27.12
9523;BME280;63165;43.016;25.784;2023-07-24T12:47:29;99809.13;;;38.36;27.12
9523;BME280;63165;43.016;25.784;2023-07-24T12:49:58;99809.53;;;38.40;27.27
9523;BME280;63165;43.016;25.784;2023-07-24T12:52:26;99808.28;;;38.42;27.59
9523;BME280;63165;43.016;25.784;2023-07-24T12:54:53;99813.97;;;38.48;26.83